createdAt,value
2023-04-25T00:00:07.981Z,4.80
2023-04-25T00:01:14.861Z,4.60
2023-04-25T00:02:17.136Z,4.97
2023-04-25T00:03:19.617Z,4.78
2023-04-25T00:04:22.769Z,4.90
2023-04-25T00:05:25.470Z,5.03
2023-04-25T00:06:27.679Z,4.68
2023-04-25T00:07:29.804Z,4.93
2023-04-25T00:08:32.025Z,5.00
2023-04-25T00:09:34.569Z,4.85
2023-04-25T00:10:37.288Z,4.90
2023-04-25T00:11:39.468Z,4.63
2023-04-25T00:12:42.367Z,5.00
2023-04-25T00:13:44.611Z,5.53
2023-04-25T00:14:47.899Z,4.90
2023-04-25T00:15:50.200Z,4.70
2023-04-25T00:16:52.768Z,4.85
2023-04-25T00:17:54.994Z,5.00
2023-04-25T00:18:57.602Z,4.60
2023-04-25T00:19:59.834Z,4.35
2023-04-25T00:21:02.186Z,3.90
2023-04-25T00:22:04.744Z,4.15
2023-04-25T00:23:06.985Z,3.95
2023-04-25T00:24:09.220Z,4.53
2023-04-25T00:25:11.451Z,4.13
2023-04-25T00:26:13.752Z,4.45
2023-04-25T00:27:16.261Z,4.00
2023-04-25T00:28:18.484Z,3.80
2023-04-25T00:29:20.890Z,4.03
2023-04-25T00:30:23.151Z,3.60
2023-04-25T00:31:25.655Z,4.05
2023-04-25T00:32:27.967Z,4.00
2023-04-25T00:33:30.599Z,3.83
2023-04-25T00:34:32.802Z,3.80
2023-04-25T00:35:36.076Z,3.78
2023-04-25T00:36:38.973Z,3.72
2023-04-25T00:37:41.408Z,3.75
2023-04-25T00:38:43.597Z,3.90
2023-04-25T00:39:45.993Z,4.20
2023-04-25T00:40:48.386Z,3.95
2023-04-25T00:41:54.046Z,4.50
2023-04-25T00:42:56.307Z,3.83
2023-04-25T00:43:59.159Z,3.50
2023-04-25T00:45:01.887Z,3.58
2023-04-25T00:46:04.736Z,4.07
2023-04-25T00:47:07.860Z,3.55
2023-04-25T00:48:10.322Z,3.75
2023-04-25T00:49:16.311Z,3.30
2023-04-25T00:50:18.648Z,3.30
2023-04-25T00:51:22.156Z,3.60
2023-04-25T00:52:24.637Z,3.58
2023-04-25T00:53:28.609Z,3.65
2023-04-25T00:54:31.650Z,3.80
2023-04-25T00:55:36.929Z,3.70
2023-04-25T00:56:39.872Z,3.63
2023-04-25T00:57:43.219Z,3.85
2023-04-25T00:58:45.620Z,3.60
2023-04-25T00:59:48.589Z,3.70
2023-04-25T01:00:53.235Z,3.80
2023-04-25T01:01:55.918Z,3.78
2023-04-25T01:02:58.807Z,4.07
2023-04-25T01:04:02.125Z,3.80
2023-04-25T01:05:05.023Z,3.92
2023-04-25T01:06:10.021Z,3.33
2023-04-25T01:07:12.247Z,3.35
2023-04-25T01:08:15.493Z,3.83
2023-04-25T01:09:17.873Z,4.03
2023-04-25T01:10:20.819Z,3.17
2023-04-25T01:11:23.061Z,3.70
2023-04-25T01:12:25.500Z,3.72
2023-04-25T01:13:28.666Z,3.35
2023-04-25T01:14:30.916Z,3.90
2023-04-25T01:15:33.127Z,3.75
2023-04-25T01:16:35.736Z,3.45
2023-04-25T01:17:40.357Z,3.38
2023-04-25T01:18:43.458Z,3.20
2023-04-25T01:19:47.029Z,3.50
2023-04-25T01:20:52.311Z,3.33
2023-04-25T01:21:55.834Z,3.88
2023-04-25T01:22:58.324Z,3.50
2023-04-25T01:24:00.851Z,3.60
2023-04-25T01:25:03.214Z,3.63
2023-04-25T01:26:07.742Z,3.28
2023-04-25T01:27:11.440Z,3.60
2023-04-25T01:28:13.752Z,3.03
2023-04-25T01:29:21.991Z,3.38
2023-04-25T01:30:24.564Z,3.33
2023-04-25T01:31:28.475Z,3.85
2023-04-25T01:32:39.254Z,3.50
2023-04-25T01:33:41.744Z,3.67
2023-04-25T01:34:44.004Z,4.25
2023-04-25T01:35:46.202Z,4.10
2023-04-25T01:36:51.414Z,3.80
2023-04-25T01:37:54.573Z,4.00
2023-04-25T01:38:57.735Z,3.38
2023-04-25T01:39:59.990Z,2.80
2023-04-25T01:41:02.433Z,3.17
2023-04-25T01:42:04.675Z,3.53
2023-04-25T01:43:09.232Z,3.30
2023-04-25T01:44:11.488Z,3.00
2023-04-25T01:45:13.911Z,2.92
2023-04-25T01:46:16.210Z,2.90
2023-04-25T01:47:19.549Z,2.90
2023-04-25T01:48:21.801Z,3.03
2023-04-25T01:49:24.554Z,2.88
2023-04-25T01:50:26.781Z,3.08
2023-04-25T01:51:29.510Z,2.60
2023-04-25T01:52:31.837Z,2.97
2023-04-25T01:53:34.809Z,2.92
2023-04-25T01:54:39.320Z,2.88
2023-04-25T01:55:41.674Z,2.75
2023-04-25T01:56:52.069Z,3.30
2023-04-25T01:57:55.375Z,2.60
2023-04-25T01:59:06.408Z,2.92
2023-04-25T02:02:08.083Z,2.95
2023-04-25T02:03:11.838Z,3.22
2023-04-25T02:04:14.463Z,3.00
2023-04-25T02:05:18.334Z,3.55
2023-04-25T02:06:20.694Z,3.15
2023-04-25T02:07:23.966Z,3.55
2023-04-25T02:08:28.613Z,2.88
2023-04-25T02:09:31.668Z,3.03
2023-04-25T02:10:35.425Z,3.28
2023-04-25T02:11:54.036Z,3.22
2023-04-25T02:13:29.909Z,3.42
2023-04-25T02:15:07.998Z,3.40
2023-04-25T02:16:15.474Z,3.25
2023-04-25T02:17:17.814Z,3.45
2023-04-25T02:18:22.222Z,3.20
2023-04-25T02:19:24.683Z,3.65
2023-04-25T02:20:28.443Z,3.45
2023-04-25T02:21:31.943Z,3.22
2023-04-25T02:22:35.245Z,3.10
2023-04-25T02:23:37.612Z,3.83
2023-04-25T02:24:40.334Z,3.45
2023-04-25T02:25:42.662Z,4.35
2023-04-25T02:26:45.325Z,3.60
2023-04-25T02:27:49.514Z,3.45
2023-04-25T02:28:52.703Z,4.05
2023-04-25T02:29:55.529Z,3.92
2023-04-25T02:30:57.702Z,3.70
2023-04-25T02:32:00.664Z,2.85
2023-04-25T02:33:03.140Z,3.63
2023-04-25T02:34:05.655Z,3.30
2023-04-25T02:35:11.272Z,3.30
2023-04-25T02:36:13.807Z,3.40
2023-04-25T02:37:17.373Z,4.10
2023-04-25T02:38:21.310Z,3.60
2023-04-25T02:39:25.943Z,3.65
2023-04-25T02:40:28.267Z,3.42
2023-04-25T02:41:30.723Z,2.97
2023-04-25T02:42:33.318Z,3.50
2023-04-25T02:43:35.586Z,3.22
2023-04-25T02:44:37.741Z,3.70
2023-04-25T02:45:41.374Z,3.78
2023-04-25T02:46:43.683Z,3.70
2023-04-25T02:47:45.960Z,3.85
2023-04-25T02:48:48.316Z,3.90
2023-04-25T02:49:51.694Z,3.60
2023-04-25T02:50:53.931Z,3.38
2023-04-25T02:51:56.184Z,3.70
2023-04-25T02:52:58.484Z,3.78
2023-04-25T02:54:07.471Z,3.97
2023-04-25T02:55:14.948Z,3.55
2023-04-25T02:56:18.290Z,4.45
2023-04-25T02:57:20.769Z,3.90
2023-04-25T02:58:23.122Z,4.03
2023-04-25T02:59:27.852Z,3.90
2023-04-25T03:00:30.366Z,3.80
2023-04-25T03:01:32.608Z,4.25
2023-04-25T03:02:34.882Z,4.40
2023-04-25T03:03:37.284Z,3.92
2023-04-25T03:04:40.079Z,4.38
2023-04-25T03:05:42.421Z,4.70
2023-04-25T03:06:44.956Z,4.13
2023-04-25T03:07:47.252Z,4.38
2023-04-25T03:08:49.540Z,4.55
2023-04-25T03:09:51.962Z,4.80
2023-04-25T03:10:56.433Z,4.20
2023-04-25T03:11:58.708Z,4.50
2023-04-25T03:13:01.144Z,4.13
2023-04-25T03:14:03.405Z,4.25
2023-04-25T03:15:06.660Z,3.83
2023-04-25T03:16:09.122Z,4.28
2023-04-25T03:17:11.449Z,4.07
2023-04-25T03:18:13.736Z,4.97
2023-04-25T03:19:17.976Z,4.32
2023-04-25T03:20:20.283Z,4.60
2023-04-25T03:21:23.443Z,4.55
2023-04-25T03:22:27.209Z,4.65
2023-04-25T03:23:29.558Z,3.80
2023-04-25T03:24:31.855Z,4.30
2023-04-25T03:25:34.578Z,4.57
2023-04-25T03:26:36.729Z,4.45
2023-04-25T03:27:38.888Z,4.72
2023-04-25T03:28:42.622Z,5.07
2023-04-25T03:29:44.812Z,4.68
2023-04-25T03:30:47.064Z,4.95
2023-04-25T03:31:49.218Z,4.63
2023-04-25T03:32:51.582Z,4.70
2023-04-25T03:33:53.951Z,4.22
2023-04-25T03:34:58.362Z,4.40
2023-04-25T03:36:03.052Z,4.68
2023-04-25T03:37:05.795Z,4.90
2023-04-25T03:38:12.667Z,4.22
2023-04-25T03:39:16.797Z,4.82
2023-04-25T03:40:23.721Z,4.85
2023-04-25T03:41:41.859Z,4.95
2023-04-25T03:42:48.737Z,4.50
2023-04-25T03:43:51.113Z,4.93
2023-04-25T03:44:53.711Z,5.15
2023-04-25T03:45:56.772Z,5.65
2023-04-25T03:46:59.644Z,5.40
2023-04-25T03:48:01.953Z,5.20
2023-04-25T03:49:05.696Z,5.38
2023-04-25T03:50:27.309Z,5.70
2023-04-25T03:51:29.990Z,5.30
2023-04-25T03:52:32.214Z,5.35
2023-04-25T03:53:34.467Z,4.60
2023-04-25T03:55:09.680Z,4.70
2023-04-25T03:56:12.731Z,5.35
2023-04-25T03:57:16.027Z,4.72
2023-04-25T03:58:19.063Z,5.60
2023-04-25T03:59:21.349Z,5.38
2023-04-25T04:00:23.536Z,4.95
2023-04-25T04:01:28.153Z,4.93
2023-04-25T04:02:30.570Z,5.03
2023-04-25T04:03:38.023Z,5.45
2023-04-25T04:04:41.123Z,5.18
2023-04-25T04:05:43.552Z,5.15
2023-04-25T04:06:46.820Z,5.40
2023-04-25T04:07:54.601Z,4.85
2023-04-25T04:08:57.672Z,4.90
2023-04-25T04:10:00.733Z,5.07
2023-04-25T04:11:09.148Z,4.95
2023-04-25T04:12:11.576Z,4.68
2023-04-25T04:13:16.129Z,4.53
2023-04-25T04:14:20.461Z,5.25
2023-04-25T04:15:24.352Z,5.15
2023-04-25T04:16:26.728Z,4.65
2023-04-25T04:17:29.069Z,4.63
2023-04-25T04:18:31.478Z,5.10
2023-04-25T04:19:33.706Z,4.78
2023-04-25T04:20:44.663Z,4.25
2023-04-25T04:21:47.575Z,4.80
2023-04-25T04:22:49.771Z,4.70
2023-04-25T04:23:53.389Z,4.60
2023-04-25T04:24:57.810Z,4.95
2023-04-25T04:26:20.001Z,4.68
2023-04-25T04:27:30.338Z,4.90
2023-04-25T04:28:55.909Z,5.10
2023-04-25T04:30:26.347Z,4.70
2023-04-25T04:31:33.571Z,5.00
2023-04-25T04:32:37.507Z,5.28
2023-04-25T04:33:41.077Z,5.32
2023-04-25T04:34:44.052Z,5.57
2023-04-25T04:35:49.450Z,5.63
2023-04-25T04:36:52.550Z,5.85
2023-04-25T04:37:55.573Z,5.93
2023-04-25T04:38:58.944Z,5.90
2023-04-25T04:40:11.169Z,5.75
2023-04-25T04:41:25.645Z,5.38
2023-04-25T04:42:38.218Z,4.80
2023-04-25T04:43:54.180Z,5.65
2023-04-25T04:45:25.669Z,6.35
2023-04-25T04:46:49.490Z,5.43
2023-04-25T04:48:07.309Z,5.47
2023-04-25T04:49:14.700Z,5.93
2023-04-25T04:50:36.846Z,5.15
2023-04-25T04:51:53.247Z,5.90
2023-04-25T04:53:18.153Z,4.65
2023-04-25T04:54:44.830Z,5.50
2023-04-25T04:56:07.374Z,5.95
2023-04-25T04:57:29.169Z,6.05
2023-04-25T04:58:49.999Z,6.20
2023-04-25T05:00:19.104Z,6.20
2023-04-25T05:01:36.653Z,5.90
2023-04-25T05:03:06.583Z,6.07
2023-04-25T05:04:24.438Z,5.82
2023-04-25T05:05:46.759Z,5.95
2023-04-25T05:07:16.130Z,5.82
2023-04-25T05:08:38.575Z,6.18
2023-04-25T05:10:00.068Z,5.85
2023-04-25T05:11:21.891Z,5.18
2023-04-25T05:12:41.267Z,5.47
2023-04-25T05:14:06.375Z,5.70
2023-04-25T05:15:19.715Z,5.28
2023-04-25T05:16:28.100Z,5.65
2023-04-25T05:18:05.881Z,5.53
2023-04-25T05:19:24.458Z,5.88
2023-04-25T05:20:45.152Z,4.82
2023-04-25T05:22:19.714Z,5.65
2023-04-25T05:23:43.833Z,5.80
2023-04-25T05:25:06.484Z,6.05
2023-04-25T05:26:34.925Z,5.75
2023-04-25T05:27:48.182Z,5.70
2023-04-25T05:29:08.890Z,5.72
2023-04-25T05:30:29.672Z,5.80
2023-04-25T05:31:46.289Z,5.82
2023-04-25T05:32:52.346Z,6.03
2023-04-25T05:33:54.650Z,6.20
2023-04-25T05:35:00.163Z,5.45
2023-04-25T05:36:07.370Z,5.90
2023-04-25T05:37:09.686Z,5.53
2023-04-25T05:38:22.135Z,6.07
2023-04-25T05:39:42.859Z,5.78
2023-04-25T05:41:02.122Z,5.70
2023-04-25T05:42:19.732Z,5.47
2023-04-25T05:43:34.032Z,5.22
2023-04-25T05:44:56.181Z,5.75
2023-04-25T05:46:18.652Z,4.60
2023-04-25T05:47:47.553Z,4.60
2023-04-25T05:49:12.299Z,4.70
2023-04-25T05:50:37.162Z,4.35
2023-04-25T05:51:57.939Z,4.50
2023-04-25T05:53:10.210Z,5.18
2023-04-25T05:54:15.948Z,4.75
2023-04-25T05:55:18.258Z,4.60
2023-04-25T05:56:20.787Z,4.45
2023-04-25T05:57:27.136Z,4.75
2023-04-25T05:58:31.777Z,4.60
2023-04-25T05:59:35.347Z,4.07
2023-04-25T06:00:37.714Z,4.65
2023-04-25T06:01:39.999Z,4.00
2023-04-25T06:02:42.811Z,3.55
2023-04-25T06:03:47.339Z,3.67
2023-04-25T06:04:53.307Z,2.95
2023-04-25T06:05:55.711Z,3.28
2023-04-25T06:06:57.926Z,3.70
2023-04-25T06:08:00.132Z,3.53
2023-04-25T06:09:02.361Z,3.35
2023-04-25T06:10:07.993Z,3.63
2023-04-25T06:11:10.186Z,3.80
2023-04-25T06:12:12.439Z,3.53
2023-04-25T06:13:16.331Z,3.30
2023-04-25T06:14:19.565Z,3.30
2023-04-25T06:15:28.481Z,3.40
2023-04-25T06:16:31.202Z,3.50
2023-04-25T06:17:34.101Z,3.38
2023-04-25T06:18:37.182Z,3.58
2023-04-25T06:19:39.438Z,3.90
2023-04-25T06:20:41.682Z,3.50
2023-04-25T06:21:45.442Z,3.67
2023-04-25T06:22:47.887Z,3.35
2023-04-25T06:23:50.698Z,3.20
2023-04-25T06:24:59.870Z,3.80
2023-04-25T06:26:02.066Z,3.60
2023-04-25T06:27:06.075Z,3.60
2023-04-25T06:28:08.407Z,3.97
2023-04-25T06:29:11.155Z,4.50
2023-04-25T06:30:13.523Z,3.97
2023-04-25T06:31:16.138Z,3.85
2023-04-25T06:32:19.515Z,3.50
2023-04-25T06:33:23.036Z,4.00
2023-04-25T06:34:25.777Z,4.28
2023-04-25T06:35:28.219Z,4.20
2023-04-25T06:36:31.309Z,4.40
2023-04-25T06:37:39.698Z,4.00
2023-04-25T06:38:41.922Z,3.88
2023-04-25T06:39:44.132Z,4.35
2023-04-25T06:40:46.944Z,3.97
2023-04-25T06:41:49.155Z,3.50
2023-04-25T06:43:11.569Z,3.97
2023-04-25T06:44:39.978Z,3.67
2023-04-25T06:45:46.394Z,3.92
2023-04-25T06:46:49.950Z,3.78
2023-04-25T06:47:52.288Z,4.28
2023-04-25T06:48:54.717Z,4.35
2023-04-25T06:49:57.125Z,4.30
2023-04-25T06:50:59.743Z,4.57
2023-04-25T06:52:02.498Z,4.10
2023-04-25T06:53:04.751Z,4.07
2023-04-25T06:54:07.195Z,4.95
2023-04-25T06:55:16.562Z,5.10
2023-04-25T06:56:39.596Z,5.20
2023-04-25T06:57:47.225Z,5.10
2023-04-25T06:59:07.835Z,4.95
2023-04-25T07:00:13.394Z,4.93
2023-04-25T07:01:15.820Z,5.72
2023-04-25T07:02:18.440Z,4.60
2023-04-25T07:03:21.441Z,4.60
2023-04-25T07:04:24.622Z,4.80
2023-04-25T07:05:31.023Z,4.93
2023-04-25T07:06:33.713Z,5.60
2023-04-25T07:07:36.503Z,4.97
2023-04-25T07:08:38.806Z,5.43
2023-04-25T07:09:40.977Z,4.40
2023-04-25T07:10:43.513Z,5.50
2023-04-25T07:11:46.249Z,4.60
2023-04-25T07:12:48.484Z,4.70
2023-04-25T07:13:50.712Z,4.82
2023-04-25T07:14:52.970Z,5.45
2023-04-25T07:15:57.232Z,4.60
2023-04-25T07:16:59.796Z,5.15
2023-04-25T07:18:03.532Z,4.60
2023-04-25T07:19:05.807Z,5.15
2023-04-25T07:20:10.037Z,4.50
2023-04-25T07:21:12.589Z,4.50
2023-04-25T07:22:16.580Z,5.20
2023-04-25T07:23:19.208Z,4.80
2023-04-25T07:24:22.164Z,5.18
2023-04-25T07:25:25.851Z,5.28
2023-04-25T07:26:28.197Z,5.38
2023-04-25T07:27:50.049Z,5.40
2023-04-25T07:28:55.608Z,5.03
2023-04-25T07:29:58.358Z,4.60
2023-04-25T07:31:00.595Z,5.25
2023-04-25T07:32:02.990Z,5.03
2023-04-25T07:33:05.411Z,5.05
2023-04-25T07:34:08.131Z,4.93
2023-04-25T07:35:11.701Z,5.35
2023-04-25T07:36:13.929Z,5.20
2023-04-25T07:37:16.500Z,5.25
2023-04-25T07:38:33.934Z,6.45
2023-04-25T07:39:38.019Z,6.00
2023-04-25T07:40:40.270Z,6.55
2023-04-25T07:41:44.489Z,6.00
2023-04-25T07:42:52.731Z,6.47
2023-04-25T07:44:04.723Z,5.60
2023-04-25T07:45:10.220Z,6.32
2023-04-25T07:46:13.599Z,5.82
2023-04-25T07:47:16.112Z,6.35
2023-04-25T07:48:22.033Z,5.30
2023-04-25T07:49:26.901Z,5.80
2023-04-25T07:50:29.530Z,5.60
2023-04-25T07:51:32.494Z,6.25
2023-04-25T07:52:40.236Z,6.80
2023-04-25T07:54:02.738Z,6.03
2023-04-25T07:55:05.601Z,6.20
2023-04-25T07:56:18.176Z,6.28
2023-04-25T07:57:25.188Z,6.65
2023-04-25T07:58:28.726Z,6.65
2023-04-25T07:59:35.002Z,6.07
2023-04-25T08:00:39.023Z,6.30
2023-04-25T08:02:01.950Z,5.88
2023-04-25T08:03:05.065Z,5.78
2023-04-25T08:04:07.932Z,5.60
2023-04-25T08:05:25.056Z,6.03
2023-04-25T08:06:37.103Z,5.47
2023-04-25T08:07:44.564Z,6.55
2023-04-25T08:08:47.307Z,6.53
2023-04-25T08:09:53.421Z,7.05
2023-04-25T08:11:00.836Z,5.72
2023-04-25T08:12:04.028Z,7.05
2023-04-25T08:13:08.573Z,6.25
2023-04-25T08:14:13.052Z,6.47
2023-04-25T08:15:16.444Z,7.80
2023-04-25T08:16:19.242Z,6.38
2023-04-25T08:17:22.425Z,7.03
2023-04-25T08:18:25.833Z,7.50
2023-04-25T08:19:28.560Z,6.97
2023-04-25T08:20:31.339Z,7.55
2023-04-25T08:21:35.866Z,8.30
2023-04-25T08:22:41.763Z,7.97
2023-04-25T08:24:13.216Z,7.68
2023-04-25T08:25:17.125Z,7.60
2023-04-25T08:26:19.417Z,7.32
2023-04-25T08:27:25.953Z,7.40
2023-04-25T08:28:28.203Z,7.45
2023-04-25T08:29:31.481Z,7.18
2023-04-25T08:30:33.872Z,7.53
2023-04-25T08:31:38.147Z,7.30
2023-04-25T08:32:41.321Z,7.35
2023-04-25T08:33:56.813Z,6.97
2023-04-25T08:35:03.781Z,6.82
2023-04-25T08:36:06.618Z,7.43
2023-04-25T08:37:10.697Z,7.55
2023-04-25T08:38:17.752Z,7.53
2023-04-25T08:39:20.021Z,6.97
2023-04-25T08:40:44.485Z,6.50
2023-04-25T08:41:53.574Z,6.60
2023-04-25T08:42:58.185Z,6.32
2023-04-25T08:44:02.027Z,7.03
2023-04-25T08:45:07.150Z,7.60
2023-04-25T08:46:13.897Z,8.35
2023-04-25T08:48:35.731Z,7.55
2023-04-25T08:49:44.049Z,7.78
2023-04-25T08:50:53.957Z,7.60
2023-04-25T08:52:00.456Z,7.72
2023-04-25T08:53:05.434Z,8.85
2023-04-25T08:55:18.396Z,7.97
2023-04-25T08:56:23.153Z,9.20
2023-04-25T08:57:26.149Z,6.90
2023-04-25T08:58:31.573Z,8.23
2023-04-25T08:59:33.932Z,7.40
2023-04-25T09:00:37.370Z,7.53
2023-04-25T09:01:39.915Z,6.80
2023-04-25T09:02:43.803Z,5.90
2023-04-25T09:03:48.168Z,5.13
2023-04-25T09:04:50.714Z,4.40
2023-04-25T09:05:53.730Z,4.82
2023-04-25T09:06:57.246Z,4.22
2023-04-25T09:07:59.654Z,3.92
2023-04-25T09:09:06.947Z,3.90
2023-04-25T09:10:09.790Z,3.90
2023-04-25T09:11:14.072Z,3.05
2023-04-25T09:12:16.577Z,3.35
2023-04-25T09:13:27.703Z,3.15
2023-04-25T09:15:09.868Z,3.20
2023-04-25T09:16:58.077Z,8.15
2023-04-25T09:18:13.228Z,5.65
2023-04-25T09:19:40.217Z,4.15
2023-04-25T09:21:57.989Z,3.00
2023-04-25T09:23:06.008Z,3.17
2023-04-25T09:24:10.293Z,3.85
2023-04-25T09:25:15.546Z,3.92
2023-04-25T09:26:21.519Z,3.97
2023-04-25T09:27:26.027Z,4.20
2023-04-25T09:28:36.051Z,4.43
2023-04-25T09:29:40.556Z,5.10
2023-04-25T09:30:43.396Z,5.68
2023-04-25T09:31:53.489Z,6.28
2023-04-25T09:32:59.082Z,5.68
2023-04-25T09:34:02.388Z,6.07
2023-04-25T09:35:11.361Z,6.25
2023-04-25T09:36:14.261Z,5.78
2023-04-25T09:37:31.910Z,6.78
2023-04-25T09:39:17.166Z,6.82
2023-04-25T09:40:25.877Z,6.40
2023-04-25T09:41:38.820Z,7.07
2023-04-25T09:42:42.669Z,6.57
2023-04-25T09:43:47.732Z,6.43
2023-04-25T09:44:53.023Z,7.70
2023-04-25T09:45:59.849Z,6.90
2023-04-25T09:47:03.380Z,6.22
2023-04-25T09:48:07.808Z,7.10
2023-04-25T09:49:15.966Z,7.15
2023-04-25T09:50:35.706Z,6.10
2023-04-25T09:51:55.229Z,6.50
2023-04-25T09:53:06.350Z,7.80
2023-04-25T09:54:26.155Z,7.28
2023-04-25T09:56:41.459Z,6.63
2023-04-25T09:57:49.736Z,7.55
2023-04-25T09:58:55.833Z,7.90
2023-04-25T09:59:59.478Z,7.63
2023-04-25T10:01:09.753Z,8.68
2023-04-25T10:02:24.511Z,8.32
2023-04-25T10:03:34.056Z,9.20
2023-04-25T10:04:56.695Z,8.48
2023-04-25T10:06:27.719Z,9.38
2023-04-25T10:07:32.445Z,8.80
2023-04-25T10:08:38.462Z,9.77
2023-04-25T10:09:41.648Z,9.68
2023-04-25T10:10:44.500Z,10.40
2023-04-25T10:11:49.029Z,10.43
2023-04-25T10:12:51.211Z,10.77
2023-04-25T10:13:53.779Z,11.55
2023-04-25T10:14:56.261Z,12.00
2023-04-25T10:16:00.283Z,11.98
2023-04-25T10:17:03.023Z,12.43
2023-04-25T10:18:07.356Z,11.55
2023-04-25T10:19:11.254Z,9.70
2023-04-25T10:20:13.992Z,10.68
2023-04-25T10:21:17.270Z,10.38
2023-04-25T10:22:32.001Z,10.20
2023-04-25T10:23:35.701Z,10.82
2023-04-25T10:24:39.405Z,10.57
2023-04-25T10:25:43.200Z,11.50
2023-04-25T10:26:45.536Z,10.90
2023-04-25T10:27:47.726Z,12.05
2023-04-25T10:28:58.140Z,10.93
2023-04-25T10:30:05.898Z,11.38
2023-04-25T10:31:09.226Z,11.40
2023-04-25T10:32:11.608Z,11.52
2023-04-25T10:33:19.618Z,10.45
2023-04-25T10:34:26.929Z,11.30
2023-04-25T10:35:34.340Z,10.48
2023-04-25T10:36:38.290Z,11.15
2023-04-25T10:38:05.645Z,10.35
2023-04-25T10:39:09.818Z,9.40
2023-04-25T10:40:12.582Z,10.93
2023-04-25T10:41:15.320Z,9.77
2023-04-25T10:42:18.495Z,9.00
2023-04-25T10:43:32.810Z,9.57
2023-04-25T10:44:35.895Z,10.10
2023-04-25T10:45:53.690Z,10.40
2023-04-25T10:46:57.793Z,11.07
2023-04-25T10:48:01.924Z,11.35
2023-04-25T10:49:04.695Z,10.82
2023-04-25T10:50:09.164Z,10.75
2023-04-25T10:51:12.751Z,11.48
2023-04-25T10:52:17.832Z,11.10
2023-04-25T10:53:20.016Z,10.45
2023-04-25T10:54:24.045Z,11.70
2023-04-25T10:55:26.379Z,9.65
2023-04-25T10:56:32.945Z,10.90
2023-04-25T10:57:42.970Z,10.25
2023-04-25T10:58:46.434Z,10.88
2023-04-25T10:59:48.789Z,10.98
2023-04-25T11:01:57.009Z,11.52
2023-04-25T11:03:03.255Z,10.07
2023-04-25T11:04:06.588Z,11.35
2023-04-25T11:05:10.466Z,11.75
2023-04-25T11:06:24.387Z,12.85
2023-04-25T11:07:48.073Z,11.95
2023-04-25T11:08:55.297Z,12.30
2023-04-25T11:09:57.713Z,11.73
2023-04-25T11:11:00.117Z,12.02
2023-04-25T11:12:02.338Z,11.85
2023-04-25T11:13:04.607Z,11.43
2023-04-25T11:14:07.314Z,11.70
2023-04-25T11:15:09.861Z,12.10
2023-04-25T11:16:12.940Z,10.18
2023-04-25T11:17:15.706Z,10.77
2023-04-25T11:18:19.181Z,10.85
2023-04-25T11:19:21.634Z,11.70
2023-04-25T11:20:26.879Z,10.75
2023-04-25T11:21:29.954Z,11.43
2023-04-25T11:22:32.339Z,10.10
2023-04-25T11:23:34.511Z,10.90
2023-04-25T11:24:37.527Z,10.48
2023-04-25T11:25:39.869Z,10.40
2023-04-25T11:26:48.658Z,11.32
2023-04-25T11:27:52.388Z,10.98
2023-04-25T11:29:00.248Z,10.68
2023-04-25T11:30:16.716Z,11.68
2023-04-25T11:31:22.872Z,9.85
2023-04-25T11:32:27.657Z,9.50
2023-04-25T11:33:30.042Z,10.18
2023-04-25T11:34:36.386Z,10.00
2023-04-25T11:35:41.690Z,9.77
2023-04-25T11:36:43.963Z,10.27
2023-04-25T11:37:46.299Z,9.60
2023-04-25T11:38:48.581Z,8.60
2023-04-25T11:39:50.849Z,9.60
2023-04-25T11:40:53.994Z,8.82
2023-04-25T11:41:56.512Z,8.38
2023-04-25T11:43:01.559Z,8.75
2023-04-25T11:44:04.675Z,8.85
2023-04-25T11:45:07.788Z,9.05
2023-04-25T11:46:10.114Z,9.95
2023-04-25T11:47:12.383Z,9.32
2023-04-25T11:48:15.228Z,9.32
2023-04-25T11:49:20.526Z,9.38
2023-04-25T11:50:22.835Z,8.82
2023-04-25T11:51:25.076Z,9.57
2023-04-25T11:52:44.418Z,9.60
2023-04-25T11:53:47.119Z,10.00
2023-04-25T11:54:49.309Z,8.93
2023-04-25T11:55:52.076Z,9.50
2023-04-25T11:56:54.582Z,9.23
2023-04-25T11:58:00.212Z,9.30
2023-04-25T11:59:05.366Z,8.30
2023-04-25T12:00:20.151Z,8.20
2023-04-25T12:01:35.539Z,9.73
2023-04-25T12:02:41.187Z,10.45
2023-04-25T12:03:47.281Z,9.45
2023-04-25T12:04:50.074Z,10.15
2023-04-25T12:05:52.761Z,10.30
2023-04-25T12:06:56.444Z,8.98
2023-04-25T12:07:58.871Z,9.27
2023-04-25T12:09:05.278Z,9.02
2023-04-25T12:10:11.599Z,8.93
2023-04-25T12:11:22.903Z,8.90
2023-04-25T12:12:35.406Z,9.60
2023-04-25T12:14:39.507Z,9.48
2023-04-25T12:15:41.825Z,8.75
2023-04-25T12:16:46.316Z,9.65
2023-04-25T12:17:50.799Z,9.85
2023-04-25T12:18:54.423Z,9.52
2023-04-25T12:19:56.653Z,9.35
2023-04-25T12:20:59.272Z,8.38
2023-04-25T12:22:04.320Z,8.30
2023-04-25T12:23:12.468Z,7.78
2023-04-25T12:24:23.566Z,8.15
2023-04-25T12:25:39.750Z,8.07
2023-04-25T12:27:00.054Z,7.75
2023-04-25T12:28:12.812Z,8.68
2023-04-25T12:29:19.234Z,8.18
2023-04-25T12:30:21.463Z,8.63
2023-04-25T12:31:23.695Z,8.85
2023-04-25T12:32:27.231Z,8.73
2023-04-25T12:33:31.292Z,8.55
2023-04-25T12:34:35.979Z,9.05
2023-04-25T12:35:38.161Z,8.05
2023-04-25T12:36:40.867Z,9.13
2023-04-25T12:37:42.986Z,8.90
2023-04-25T12:38:45.275Z,9.35
2023-04-25T12:39:47.490Z,7.93
2023-04-25T12:40:49.702Z,8.77
2023-04-25T12:41:55.388Z,7.70
2023-04-25T12:42:58.315Z,7.30
2023-04-25T12:44:00.466Z,7.47
2023-04-25T12:45:02.640Z,7.32
2023-04-25T12:46:06.051Z,7.43
2023-04-25T12:47:08.596Z,7.90
2023-04-25T12:48:11.186Z,7.75
2023-04-25T12:49:18.554Z,8.20
2023-04-25T12:50:21.953Z,8.05
2023-04-25T12:51:25.999Z,8.00
2023-04-25T12:52:28.381Z,8.35
2023-04-25T12:53:30.786Z,7.30
2023-04-25T12:54:32.985Z,7.72
2023-04-25T12:55:35.187Z,7.80
2023-04-25T12:56:37.639Z,8.27
2023-04-25T12:57:40.164Z,7.90
2023-04-25T12:58:45.097Z,8.05
2023-04-25T12:59:47.366Z,7.63
2023-04-25T13:00:49.883Z,7.57
2023-04-25T13:01:52.300Z,8.43
2023-04-25T13:02:54.838Z,8.27
2023-04-25T13:03:57.215Z,7.68
2023-04-25T13:04:59.628Z,8.43
2023-04-25T13:06:02.120Z,8.23
2023-04-25T13:07:04.489Z,8.25
2023-04-25T13:08:06.668Z,7.93
2023-04-25T13:09:09.468Z,7.25
2023-04-25T13:10:12.388Z,7.90
2023-04-25T13:11:15.838Z,7.57
2023-04-25T13:12:18.115Z,7.90
2023-04-25T13:13:21.178Z,8.00
2023-04-25T13:14:23.586Z,7.50
2023-04-25T13:15:25.887Z,7.13
2023-04-25T13:16:28.236Z,6.85
2023-04-25T13:17:31.011Z,7.30
2023-04-25T13:18:33.309Z,7.18
2023-04-25T13:19:35.575Z,7.22
2023-04-25T13:20:37.821Z,7.10
2023-04-25T13:21:40.128Z,6.93
2023-04-25T13:22:43.877Z,7.78
2023-04-25T13:23:47.788Z,7.32
2023-04-25T13:24:49.982Z,7.70
2023-04-25T13:25:52.382Z,8.68
2023-04-25T13:26:54.611Z,8.38
2023-04-25T13:27:56.863Z,7.93
2023-04-25T13:28:59.095Z,8.65
2023-04-25T13:30:08.199Z,9.02
2023-04-25T13:31:10.426Z,8.35
2023-04-25T13:32:12.641Z,8.80
2023-04-25T13:33:16.078Z,8.05
2023-04-25T13:34:18.221Z,7.82
2023-04-25T13:35:20.838Z,8.60
2023-04-25T13:36:22.999Z,7.80
2023-04-25T13:37:25.799Z,8.10
2023-04-25T13:38:27.924Z,8.35
2023-04-25T13:39:30.165Z,9.00
2023-04-25T13:40:33.135Z,9.65
2023-04-25T13:41:35.653Z,9.23
2023-04-25T13:42:39.257Z,8.82
2023-04-25T13:43:41.498Z,9.18
2023-04-25T13:44:43.643Z,7.93
2023-04-25T13:45:45.903Z,8.30
2023-04-25T13:46:48.209Z,8.38
2023-04-25T13:47:50.938Z,8.00
2023-04-25T13:48:59.756Z,8.65
2023-04-25T13:50:08.891Z,7.88
2023-04-25T13:51:12.037Z,8.32
2023-04-25T13:52:14.521Z,8.30
2023-04-25T13:53:16.785Z,7.85
2023-04-25T13:54:19.129Z,8.75
2023-04-25T13:55:21.389Z,7.70
2023-04-25T13:56:24.329Z,8.90
2023-04-25T13:57:26.731Z,7.45
2023-04-25T13:58:28.933Z,7.10
2023-04-25T13:59:31.363Z,7.40
2023-04-25T14:00:34.841Z,7.38
2023-04-25T14:01:37.158Z,7.00
2023-04-25T14:02:39.712Z,8.07
2023-04-25T14:03:42.518Z,7.07
2023-04-25T14:04:44.922Z,6.80
2023-04-25T14:05:47.178Z,6.70
2023-04-25T14:06:49.412Z,7.55
2023-04-25T14:07:52.107Z,7.20
2023-04-25T14:08:55.322Z,6.93
2023-04-25T14:10:00.747Z,6.80
2023-04-25T14:11:02.983Z,8.30
2023-04-25T14:12:05.257Z,7.85
2023-04-25T14:13:09.514Z,7.95
2023-04-25T14:14:14.458Z,7.38
2023-04-25T14:15:16.710Z,7.18
2023-04-25T14:16:18.914Z,6.70
2023-04-25T14:17:21.288Z,6.90
2023-04-25T14:18:23.565Z,7.00
2023-04-25T14:19:25.974Z,6.85
2023-04-25T14:20:28.618Z,7.25
2023-04-25T14:21:33.156Z,6.60
2023-04-25T14:22:35.577Z,7.72
2023-04-25T14:23:37.744Z,7.63
2023-04-25T14:24:40.003Z,8.00
2023-04-25T14:25:42.992Z,7.80
2023-04-25T14:26:45.565Z,7.85
2023-04-25T14:27:50.700Z,7.20
2023-04-25T14:28:53.265Z,7.13
2023-04-25T14:29:55.543Z,7.05
2023-04-25T14:30:57.772Z,7.43
2023-04-25T14:32:00.376Z,7.35
2023-04-25T14:33:02.569Z,7.63
2023-04-25T14:34:04.739Z,6.60
2023-04-25T14:35:08.309Z,6.85
2023-04-25T14:36:12.012Z,6.68
2023-04-25T14:37:14.143Z,6.45
2023-04-25T14:38:16.366Z,6.72
2023-04-25T14:39:19.304Z,7.47
2023-04-25T14:40:23.869Z,7.07
2023-04-25T14:41:26.821Z,6.90
2023-04-25T14:44:09.288Z,6.30
2023-04-25T14:45:11.653Z,6.63